Time;durP1;ratioP1;P1;durP2;ratioP2;P2;SDS_P1;SDS_P2;PMS_P1;PMS_P2;Temp;Humidity;BMP_temperature;BMP_pressure;BME280_temperature;BME280_humidity;BME280_pressure;Samples;Min_cycle;Max_cycle;Signal;HPM_P1;HPM_P2
2024/02/14 00:02:04;;;;;;;7.63;3.45;;;12.10;96.60;;;;;;5089894;28;20123;-74
2024/02/14 00:04:33;;;;;;;8.77;3.67;;;12.00;96.40;;;;;;5099062;28;20034;-74
2024/02/14 00:06:59;;;;;;;6.80;2.72;;;12.10;96.40;;;;;;5090197;28;20050;-74
2024/02/14 00:09:25;;;;;;;6.85;3.10;;;12.10;96.30;;;;;;5093083;28;20060;-74
2024/02/14 00:11:50;;;;;;;3.50;2.22;;;12.10;96.40;;;;;;5098467;28;20060;-74
2024/02/14 00:14:16;;;;;;;7.47;3.22;;;12.10;96.40;;;;;;5099714;28;20384;-74
2024/02/14 00:16:41;;;;;;;6.43;3.17;;;12.10;96.20;;;;;;5103185;28;20023;-74
2024/02/14 00:19:07;;;;;;;6.13;2.95;;;12.10;96.20;;;;;;5096562;28;20479;-74
2024/02/14 00:21:34;;;;;;;5.22;3.20;;;12.10;96.20;;;;;;5094005;28;20493;-74
2024/02/14 00:24:01;;;;;;;4.47;2.38;;;12.10;96.10;;;;;;5097209;28;20378;-74
2024/02/14 00:26:27;;;;;;;5.68;3.55;;;12.10;96.00;;;;;;5094255;28;20036;-74
2024/02/14 00:28:53;;;;;;;4.25;2.35;;;12.10;96.20;;;;;;5095061;28;20503;-74
2024/02/14 00:31:18;;;;;;;6.53;3.40;;;12.10;96.20;;;;;;5095143;28;20110;-74
2024/02/14 00:33:46;;;;;;;4.22;2.55;;;12.10;95.90;;;;;;5101805;28;20509;-74
2024/02/14 00:36:11;;;;;;;3.72;2.63;;;12.10;96.10;;;;;;5095619;28;20028;-74
2024/02/14 00:38:37;;;;;;;6.03;3.22;;;12.00;95.90;;;;;;5106802;28;20042;-74
2024/02/14 00:41:03;;;;;;;7.45;3.65;;;12.00;96.30;;;;;;5093887;28;20032;-74
2024/02/14 00:43:29;;;;;;;7.60;4.00;;;11.90;96.60;;;;;;5090663;28;20042;-74
2024/02/14 00:45:56;;;;;;;7.53;3.10;;;11.90;96.60;;;;;;5108490;28;20027;-74
2024/02/14 00:48:22;;;;;;;10.25;4.07;;;11.90;96.70;;;;;;5090679;28;20081;-74
2024/02/14 00:50:48;;;;;;;4.80;2.92;;;11.90;96.80;;;;;;5099927;28;20031;-74
2024/02/14 00:53:14;;;;;;;10.00;3.83;;;11.80;96.90;;;;;;5096838;28;20134;-74
2024/02/14 00:55:39;;;;;;;10.07;3.65;;;11.90;97.20;;;;;;5098761;28;20119;-74
2024/02/14 00:58:05;;;;;;;9.25;3.47;;;11.80;97.20;;;;;;5086556;28;20084;-74
2024/02/14 01:00:34;;;;;;;6.10;3.80;;;11.80;97.10;;;;;;5089301;28;20428;-74
2024/02/14 01:03:00;;;;;;;5.95;3.10;;;11.80;97.00;;;;;;5098574;28;20099;-74
2024/02/14 01:05:26;;;;;;;8.20;3.88;;;11.80;96.90;;;;;;5096077;28;20498;-74
2024/02/14 01:07:53;;;;;;;7.05;4.10;;;11.80;96.80;;;;;;5089556;28;20842;-73
2024/02/14 01:10:20;;;;;;;6.68;3.90;;;11.80;97.10;;;;;;5088414;28;20054;-74
2024/02/14 01:12:46;;;;;;;9.65;4.22;;;11.80;97.00;;;;;;5098733;28;20535;-74
2024/02/14 01:15:11;;;;;;;6.75;3.45;;;11.90;97.10;;;;;;5105931;28;20028;-74
2024/02/14 01:17:40;;;;;;;10.55;3.88;;;11.80;97.20;;;;;;5090427;28;20032;-74
2024/02/14 01:20:08;;;;;;;7.70;3.72;;;11.80;96.90;;;;;;5103104;28;20032;-74
2024/02/14 01:22:34;;;;;;;4.07;2.65;;;11.80;97.10;;;;;;5120881;27;20156;-75
2024/02/14 01:25:04;;;;;;;4.78;3.60;;;11.80;97.10;;;;;;5105303;27;20035;-74
2024/02/14 01:27:30;;;;;;;8.20;3.67;;;11.90;97.00;;;;;;5090026;28;20135;-74
2024/02/14 01:29:57;;;;;;;5.95;3.30;;;11.80;97.00;;;;;;5114919;27;20122;-73
2024/02/14 01:32:23;;;;;;;5.80;3.58;;;11.90;96.80;;;;;;5100308;28;20149;-73
2024/02/14 01:34:48;;;;;;;6.22;3.95;;;11.90;97.00;;;;;;5099647;28;20501;-75
2024/02/14 01:37:14;;;;;;;5.80;3.47;;;11.90;96.90;;;;;;5097485;28;20031;-74
2024/02/14 01:39:40;;;;;;;5.07;3.50;;;11.90;96.90;;;;;;5106927;28;20092;-74
2024/02/14 01:42:07;;;;;;;4.43;3.22;;;11.90;96.80;;;;;;5101364;28;20111;-74
2024/02/14 01:44:33;;;;;;;6.53;3.50;;;11.90;96.80;;;;;;5088573;28;20036;-74
2024/02/14 01:47:00;;;;;;;7.13;3.28;;;12.00;96.80;;;;;;5086760;28;20498;-74
2024/02/14 01:49:28;;;;;;;4.35;2.92;;;11.90;96.80;;;;;;5087885;28;20059;-74
2024/02/14 01:51:57;;;;;;;5.97;3.28;;;12.00;96.90;;;;;;5087080;28;20794;-74
2024/02/14 01:54:25;;;;;;;3.67;2.80;;;12.00;96.90;;;;;;5097165;28;20042;-74
2024/02/14 01:56:52;;;;;;;5.07;3.25;;;11.90;96.90;;;;;;5108837;28;20024;-74
2024/02/14 01:59:18;;;;;;;5.25;3.33;;;11.90;96.80;;;;;;5095141;28;20034;-74
2024/02/14 02:01:44;;;;;;;6.75;4.05;;;11.90;97.00;;;;;;5094744;28;20758;-74
2024/02/14 02:04:10;;;;;;;5.80;3.78;;;11.90;97.20;;;;;;5094085;28;20035;-74
2024/02/14 02:06:37;;;;;;;3.65;2.58;;;11.90;97.10;;;;;;5096881;28;20169;-74
2024/02/14 02:09:02;;;;;;;3.03;2.67;;;11.90;97.00;;;;;;5106675;28;20031;-75
2024/02/14 02:11:28;;;;;;;3.28;2.42;;;11.90;96.90;;;;;;5108473;28;20042;-74
2024/02/14 02:13:55;;;;;;;8.32;2.63;;;11.90;97.00;;;;;;5097183;28;20043;-75
2024/02/14 02:16:21;;;;;;;4.65;2.58;;;12.00;97.00;;;;;;5101898;28;20023;-74
2024/02/14 02:18:48;;;;;;;5.20;3.17;;;12.00;96.90;;;;;;5106520;28;20038;-74
2024/02/14 02:21:14;;;;;;;3.85;2.60;;;12.00;96.80;;;;;;5092700;28;20032;-74
2024/02/14 02:23:45;;;;;;;3.03;1.88;;;12.00;96.80;;;;;;5097956;28;20388;-75
2024/02/14 02:26:11;;;;;;;3.00;1.92;;;12.00;96.60;;;;;;5095015;28;20103;-75
2024/02/14 02:28:39;;;;;;;6.07;2.00;;;12.00;96.40;;;;;;5102506;27;20118;-75
2024/02/14 02:31:05;;;;;;;4.15;2.60;;;12.00;96.40;;;;;;5115875;27;20036;-75
2024/02/14 02:33:30;;;;;;;4.32;2.50;;;12.00;96.40;;;;;;5091800;28;20043;-74
2024/02/14 02:35:56;;;;;;;1.73;1.52;;;12.00;96.40;;;;;;5092522;28;20035;-74
2024/02/14 02:38:22;;;;;;;2.35;2.03;;;11.90;96.40;;;;;;5105495;28;20471;-74
2024/02/14 02:40:48;;;;;;;4.13;2.10;;;11.90;96.40;;;;;;5104241;28;20038;-73
2024/02/14 02:43:14;;;;;;;1.60;1.13;;;11.90;96.40;;;;;;5094968;28;20023;-73
2024/02/14 02:45:39;;;;;;;3.47;2.10;;;11.90;96.40;;;;;;5099199;28;20379;-73
2024/02/14 02:48:05;;;;;;;0.88;0.85;;;11.90;96.50;;;;;;5095670;28;20470;-73
2024/02/14 02:50:31;;;;;;;1.63;1.52;;;11.90;96.50;;;;;;5099802;28;20040;-73
2024/02/14 02:52:57;;;;;;;1.15;1.05;;;11.90;96.60;;;;;;5090001;28;20042;-73
2024/02/14 02:55:23;;;;;;;3.90;2.25;;;11.80;96.60;;;;;;5092863;28;20058;-73
2024/02/14 02:57:48;;;;;;;2.60;1.83;;;11.80;96.70;;;;;;5106716;27;20475;-73
2024/02/14 03:00:15;;;;;;;0.93;0.93;;;11.80;96.70;;;;;;5107069;28;20035;-73
2024/02/14 03:02:46;;;;;;;2.03;1.83;;;11.80;96.70;;;;;;5106752;27;20104;-73
2024/02/14 03:05:31;;;;;;;1.75;1.42;;;11.80;96.70;;;;;;5115033;27;20050;-73
2024/02/14 03:07:58;;;;;;;2.03;1.50;;;11.90;96.80;;;;;;5120456;27;20063;-73
2024/02/14 03:10:24;;;;;;;2.40;2.00;;;11.80;97.10;;;;;;5105459;27;20490;-73
2024/02/14 03:12:50;;;;;;;3.05;1.90;;;11.80;96.90;;;;;;5102343;28;20051;-73
2024/02/14 03:15:18;;;;;;;1.45;1.35;;;11.80;96.90;;;;;;5104947;28;20036;-73
2024/02/14 03:17:44;;;;;;;1.55;1.38;;;11.80;97.00;;;;;;5090605;28;20475;-73
2024/02/14 03:20:12;;;;;;;2.35;1.58;;;11.70;97.00;;;;;;5096238;27;20030;-73
2024/02/14 03:22:43;;;;;;;1.70;1.52;;;11.70;97.00;;;;;;5095307;28;20058;-73
2024/02/14 03:25:09;;;;;;;4.15;2.00;;;11.80;97.00;;;;;;5092811;28;20075;-73
2024/02/14 03:27:35;;;;;;;2.05;1.85;;;11.80;97.10;;;;;;5107573;28;20035;-73
2024/02/14 03:30:02;;;;;;;1.85;1.63;;;11.70;97.10;;;;;;5104306;27;20065;-73
2024/02/14 03:32:29;;;;;;;0.93;0.85;;;11.80;97.20;;;;;;5098090;28;20044;-73
2024/02/14 03:34:55;;;;;;;1.63;1.52;;;11.80;97.20;;;;;;5090912;28;20759;-73
2024/02/14 03:37:21;;;;;;;2.30;1.92;;;11.80;97.20;;;;;;5106374;27;20063;-73
2024/02/14 03:39:46;;;;;;;2.17;1.63;;;11.80;97.20;;;;;;5104148;28;20061;-73
2024/02/14 03:42:15;;;;;;;3.10;2.10;;;11.90;97.10;;;;;;5108712;28;20115;-73
2024/02/14 03:44:40;;;;;;;2.15;1.80;;;11.80;97.10;;;;;;5091116;28;20043;-73
2024/02/14 03:47:06;;;;;;;2.05;1.85;;;11.90;97.20;;;;;;5100706;28;20031;-73
2024/02/14 03:49:32;;;;;;;1.60;1.50;;;11.90;97.20;;;;;;5096320;28;20047;-73
2024/02/14 03:51:58;;;;;;;1.40;1.20;;;11.90;97.20;;;;;;5098514;28;20117;-73
2024/02/14 03:54:23;;;;;;;1.02;1.00;;;11.90;97.20;;;;;;5104239;28;20032;-73
2024/02/14 03:56:49;;;;;;;1.77;1.30;;;11.90;97.20;;;;;;5090502;28;20084;-73
2024/02/14 03:59:15;;;;;;;0.88;0.88;;;11.80;97.20;;;;;;5106538;28;20073;-73
2024/02/14 04:01:45;;;;;;;1.80;1.52;;;11.90;97.40;;;;;;5096352;28;20032;-73
2024/02/14 04:04:10;;;;;;;0.82;0.82;;;11.80;97.40;;;;;;5094861;28;20027;-73
2024/02/14 04:06:36;;;;;;;0.93;0.93;;;11.80;97.50;;;;;;5106595;28;20047;-74
2024/02/14 04:09:02;;;;;;;1.05;0.93;;;11.80;97.70;;;;;;5090193;28;20077;-73
2024/02/14 04:11:28;;;;;;;1.60;1.50;;;11.80;97.80;;;;;;5109493;27;20020;-73
2024/02/14 04:13:53;;;;;;;1.00;0.90;;;11.70;97.80;;;;;;5092627;28;20493;-73
2024/02/14 04:16:20;;;;;;;1.67;0.95;;;11.70;97.90;;;;;;5101638;28;20024;-73
2024/02/14 04:18:46;;;;;;;0.77;0.77;;;11.70;98.00;;;;;;5098136;28;20169;-73
2024/02/14 04:21:11;;;;;;;1.10;1.00;;;11.60;98.10;;;;;;5096418;28;20166;-73
2024/02/14 04:23:37;;;;;;;0.60;0.60;;;11.60;98.20;;;;;;5088276;28;20032;-73
2024/02/14 04:26:03;;;;;;;0.73;0.73;;;11.60;98.40;;;;;;5104114;28;20039;-73
2024/02/14 04:28:28;;;;;;;0.57;0.57;;;11.50;98.60;;;;;;5100639;27;20030;-73
2024/02/14 04:30:55;;;;;;;0.75;0.75;;;11.50;98.80;;;;;;5092527;28;20509;-73
2024/02/14 04:33:21;;;;;;;0.55;0.55;;;11.40;98.90;;;;;;5089470;28;20099;-74
2024/02/14 04:35:47;;;;;;;1.45;1.35;;;11.40;99.20;;;;;;5098521;28;20054;-74
2024/02/14 04:38:12;;;;;;;0.70;0.70;;;11.40;99.30;;;;;;5088948;28;20488;-73
2024/02/14 04:40:39;;;;;;;0.70;0.70;;;11.30;99.50;;;;;;5089749;28;20024;-73
2024/02/14 04:43:05;;;;;;;0.70;0.70;;;11.30;99.60;;;;;;5091094;28;20031;-73
2024/02/14 04:45:30;;;;;;;0.68;0.68;;;11.30;99.80;;;;;;5097975;28;20015;-73
2024/02/14 04:47:56;;;;;;;0.80;0.80;;;11.30;99.90;;;;;;5093551;28;20061;-73
2024/02/14 04:50:22;;;;;;;0.52;0.52;;;11.40;99.90;;;;;;5089066;28;20035;-73
2024/02/14 04:52:47;;;;;;;0.80;0.80;;;11.30;99.90;;;;;;5086570;28;20040;-73
2024/02/14 04:55:13;;;;;;;1.33;1.23;;;11.30;99.90;;;;;;5089466;28;20056;-73
2024/02/14 04:57:39;;;;;;;0.90;0.90;;;11.30;99.90;;;;;;5087948;28;20032;-73
2024/02/14 05:00:07;;;;;;;0.93;0.93;;;11.30;99.90;;;;;;5089714;28;20475;-73
2024/02/14 05:02:32;;;;;;;0.93;0.90;;;11.40;99.90;;;;;;5090751;28;20043;-73
2024/02/14 05:04:58;;;;;;;0.90;0.90;;;11.40;99.90;;;;;;5095882;28;20039;-73
2024/02/14 05:07:24;;;;;;;1.00;0.90;;;11.40;99.90;;;;;;5109380;28;20076;-73
2024/02/14 05:09:52;;;;;;;1.20;1.13;;;11.40;99.90;;;;;;5095470;27;20202;-73
2024/02/14 05:12:17;;;;;;;1.98;1.42;;;11.40;99.90;;;;;;5099153;28;20528;-73
2024/02/14 05:14:43;;;;;;;1.67;1.30;;;11.50;99.90;;;;;;5101321;28;20039;-73
2024/02/14 05:17:09;;;;;;;1.30;1.20;;;11.40;99.90;;;;;;5087256;28;20128;-73
2024/02/14 05:19:35;;;;;;;1.25;1.13;;;11.50;99.90;;;;;;5099604;28;20039;-73
2024/02/14 05:22:01;;;;;;;1.33;1.23;;;11.50;99.90;;;;;;5092293;28;20405;-73
2024/02/14 05:24:29;;;;;;;1.10;1.05;;;11.50;99.90;;;;;;5089242;28;20422;-72
2024/02/14 05:26:55;;;;;;;2.58;1.80;;;11.50;99.90;;;;;;5096446;28;20039;-73
2024/02/14 05:29:20;;;;;;;1.40;1.30;;;11.50;99.90;;;;;;5118806;27;20023;-73
2024/02/14 05:31:48;;;;;;;1.27;1.15;;;11.50;99.90;;;;;;5100568;28;20028;-74
2024/02/14 05:34:14;;;;;;;1.73;1.58;;;11.60;99.90;;;;;;5092013;28;20048;-74
2024/02/14 05:36:40;;;;;;;1.15;1.08;;;11.60;99.90;;;;;;5094546;28;20127;-75
2024/02/14 05:39:08;;;;;;;2.75;1.50;;;11.60;99.90;;;;;;5090059;28;20137;-75
2024/02/14 05:41:35;;;;;;;1.30;1.20;;;11.60;99.90;;;;;;5097198;28;20085;-75
2024/02/14 05:44:00;;;;;;;7.25;1.52;;;11.60;99.90;;;;;;5097178;28;20031;-75
2024/02/14 05:46:27;;;;;;;1.60;1.45;;;11.60;99.90;;;;;;5104980;28;20093;-75
2024/02/14 05:48:53;;;;;;;1.25;1.15;;;11.60;99.90;;;;;;5096286;28;20086;-74
2024/02/14 05:51:18;;;;;;;1.85;1.63;;;11.70;99.90;;;;;;5093008;28;20360;-73
2024/02/14 05:53:44;;;;;;;1.00;1.00;;;11.70;99.90;;;;;;5099723;28;20047;-74
2024/02/14 05:56:10;;;;;;;1.40;1.17;;;11.70;99.90;;;;;;5092994;28;20103;-75
2024/02/14 05:58:36;;;;;;;1.88;1.58;;;11.70;99.90;;;;;;5095807;28;20032;-75
2024/02/14 06:01:01;;;;;;;2.17;1.65;;;11.70;99.90;;;;;;5097755;28;20052;-74
2024/02/14 06:03:27;;;;;;;2.38;1.80;;;11.70;99.90;;;;;;5092546;27;20483;-74
2024/02/14 06:05:53;;;;;;;1.17;1.08;;;11.70;99.90;;;;;;5101661;28;21005;-74
2024/02/14 06:08:19;;;;;;;3.70;2.50;;;11.70;99.90;;;;;;5100621;28;20439;-74
2024/02/14 06:10:45;;;;;;;2.90;2.17;;;11.70;99.90;;;;;;5109091;27;20023;-73
2024/02/14 06:13:10;;;;;;;1.30;1.20;;;11.70;99.90;;;;;;5094552;28;20406;-74
2024/02/14 06:15:36;;;;;;;2.92;2.03;;;11.70;99.90;;;;;;5099627;28;20036;-74
2024/02/14 06:18:05;;;;;;;1.92;1.60;;;11.70;99.90;;;;;;5094748;28;20105;-74
2024/02/14 06:20:30;;;;;;;1.88;1.70;;;11.70;99.90;;;;;;5096388;28;20027;-73
2024/02/14 06:22:56;;;;;;;3.28;1.95;;;11.70;99.90;;;;;;5096120;28;20479;-73
2024/02/14 06:25:22;;;;;;;1.48;1.38;;;11.70;99.90;;;;;;5102214;28;20454;-73
2024/02/14 06:27:47;;;;;;;1.58;1.13;;;11.80;99.90;;;;;;5099162;28;20047;-73
2024/02/14 06:30:13;;;;;;;3.33;1.67;;;11.80;99.90;;;;;;5112241;27;20027;-74
2024/02/14 06:32:39;;;;;;;1.08;1.02;;;11.70;99.90;;;;;;5096779;28;20066;-72
2024/02/14 06:35:05;;;;;;;2.05;1.50;;;11.70;99.90;;;;;;5102645;28;20390;-75
2024/02/14 06:37:30;;;;;;;2.53;1.52;;;11.80;99.90;;;;;;5091824;28;20028;-72
2024/02/14 06:39:56;;;;;;;1.65;1.20;;;11.80;99.90;;;;;;5097331;28;20032;-73
2024/02/14 06:42:21;;;;;;;2.47;1.30;;;11.80;99.90;;;;;;5092259;28;20094;-72
2024/02/14 06:44:47;;;;;;;1.70;1.50;;;11.80;99.90;;;;;;5094796;28;20116;-73
2024/02/14 06:47:13;;;;;;;1.83;1.63;;;11.80;99.90;;;;;;5108387;28;20050;-72
2024/02/14 06:49:39;;;;;;;1.35;1.25;;;11.80;99.90;;;;;;5090797;28;20101;-72
2024/02/14 06:52:05;;;;;;;1.02;0.93;;;11.90;99.90;;;;;;5097255;28;20032;-73
2024/02/14 06:54:30;;;;;;;0.80;0.80;;;11.90;99.90;;;;;;5098361;28;20066;-73
2024/02/14 06:56:56;;;;;;;0.50;0.50;;;11.90;99.90;;;;;;5104380;27;20035;-72
2024/02/14 06:59:21;;;;;;;2.58;1.25;;;11.90;99.90;;;;;;5091195;28;20043;-73
2024/02/14 07:01:48;;;;;;;0.65;0.65;;;11.90;99.90;;;;;;5096521;28;20028;-73
2024/02/14 07:04:14;;;;;;;1.48;0.68;;;12.00;99.90;;;;;;5096703;28;20035;-73
2024/02/14 07:06:39;;;;;;;2.72;1.33;;;12.00;99.90;;;;;;5091532;28;20395;-73
2024/02/14 07:09:05;;;;;;;0.90;0.75;;;12.00;99.90;;;;;;5089872;28;20031;-73
2024/02/14 07:11:31;;;;;;;1.35;1.25;;;12.00;99.90;;;;;;5090526;28;20028;-73
2024/02/14 07:13:57;;;;;;;1.63;1.42;;;12.00;99.90;;;;;;5100846;28;20478;-73
2024/02/14 07:16:23;;;;;;;3.10;1.70;;;12.00;99.90;;;;;;5089726;28;20672;-73
2024/02/14 07:18:49;;;;;;;8.02;2.28;;;12.10;99.90;;;;;;5097907;28;20043;-73
2024/02/14 07:21:15;;;;;;;1.10;0.85;;;12.10;99.90;;;;;;5087054;28;20048;-72
2024/02/14 07:23:40;;;;;;;5.20;1.77;;;12.10;99.90;;;;;;5098547;28;20058;-73
2024/02/14 07:26:06;;;;;;;3.85;2.13;;;12.10;99.90;;;;;;5102605;28;20063;-73
2024/02/14 07:28:32;;;;;;;14.52;3.47;;;12.10;99.90;;;;;;5099678;27;20016;-72
2024/02/14 07:30:57;;;;;;;16.13;3.00;;;12.10;99.90;;;;;;5104546;27;20024;-74
2024/02/14 07:33:23;;;;;;;8.45;2.83;;;12.10;99.90;;;;;;5103782;28;20188;-73
2024/02/14 07:35:49;;;;;;;14.93;4.28;;;12.10;99.90;;;;;;5091426;28;20074;-74
2024/02/14 07:38:16;;;;;;;5.53;2.15;;;12.20;99.90;;;;;;5096964;28;20114;-72
2024/02/14 07:40:42;;;;;;;12.93;3.88;;;12.10;99.90;;;;;;5094016;28;20146;-73
2024/02/14 07:43:08;;;;;;;14.30;3.13;;;12.10;99.90;;;;;;5096245;28;20541;-73
2024/02/14 07:45:33;;;;;;;15.60;2.85;;;12.10;99.90;;;;;;5078863;28;20012;-73
2024/02/14 07:48:02;;;;;;;9.60;3.60;;;12.20;99.90;;;;;;5095026;28;20035;-74
2024/02/14 07:50:28;;;;;;;14.73;4.28;;;12.10;99.90;;;;;;5098631;28;20092;-72
2024/02/14 07:52:54;;;;;;;12.75;3.47;;;12.10;99.90;;;;;;5101418;28;20040;-72
2024/02/14 07:55:19;;;;;;;22.05;5.70;;;12.10;99.90;;;;;;5100335;28;20040;-72
2024/02/14 07:57:45;;;;;;;16.23;4.45;;;12.20;99.90;;;;;;5092490;28;20035;-72
2024/02/14 08:00:12;;;;;;;23.50;5.03;;;12.20;99.90;;;;;;5095945;28;20028;-72
2024/02/14 08:02:38;;;;;;;17.80;3.67;;;12.10;99.90;;;;;;5092229;28;20070;-72
2024/02/14 08:05:08;;;;;;;11.13;2.63;;;12.10;99.90;;;;;;5101421;27;20066;-73
2024/02/14 08:07:34;;;;;;;15.70;4.80;;;12.10;99.90;;;;;;5095179;28;20031;-73
2024/02/14 08:09:59;;;;;;;12.40;2.97;;;12.10;99.90;;;;;;5095718;28;20150;-72
2024/02/14 08:12:25;;;;;;;19.50;3.25;;;12.20;99.90;;;;;;5108338;28;20490;-72
2024/02/14 08:14:52;;;;;;;12.60;2.70;;;12.20;99.90;;;;;;5092518;28;20037;-72
2024/02/14 08:17:17;;;;;;;14.52;2.83;;;12.20;99.90;;;;;;5102027;28;20483;-72
2024/02/14 08:19:43;;;;;;;15.32;3.67;;;12.30;99.90;;;;;;5100875;28;20019;-72
2024/02/14 08:22:09;;;;;;;14.82;3.45;;;12.30;99.90;;;;;;5091059;28;20028;-72
2024/02/14 08:24:34;;;;;;;8.00;3.22;;;12.20;99.90;;;;;;5089751;28;20081;-72
2024/02/14 08:27:00;;;;;;;11.35;3.67;;;12.30;99.90;;;;;;5093477;28;20027;-73
2024/02/14 08:29:25;;;;;;;11.82;3.50;;;12.30;99.90;;;;;;5105498;27;20083;-74
2024/02/14 08:31:51;;;;;;;11.23;3.10;;;12.30;99.90;;;;;;5094455;28;20395;-74
2024/02/14 08:34:17;;;;;;;20.35;3.88;;;12.30;99.90;;;;;;5109761;28;20051;-72
2024/02/14 08:36:43;;;;;;;18.52;3.58;;;12.30;99.90;;;;;;5105471;28;20026;-72
2024/02/14 08:39:11;;;;;;;10.30;3.22;;;12.40;99.90;;;;;;5088572;28;20490;-72
2024/02/14 08:41:38;;;;;;;20.50;3.55;;;12.40;99.90;;;;;;5097197;28;20043;-72
2024/02/14 08:44:04;;;;;;;13.90;3.20;;;12.40;99.90;;;;;;5088391;28;20038;-72
2024/02/14 08:46:31;;;;;;;21.30;4.93;;;12.40;99.90;;;;;;5091210;28;20114;-72
2024/02/14 08:48:56;;;;;;;29.10;4.07;;;12.40;99.90;;;;;;5108320;28;20078;-73
2024/02/14 08:51:23;;;;;;;15.13;3.95;;;12.40;99.90;;;;;;5091662;28;20365;-73
2024/02/14 08:53:51;;;;;;;18.17;3.42;;;12.40;99.90;;;;;;5089188;28;20506;-74
2024/02/14 08:56:17;;;;;;;17.25;3.38;;;12.50;99.90;;;;;;5084013;28;20111;-73
2024/02/14 08:58:44;;;;;;;18.50;3.83;;;12.40;99.90;;;;;;5099985;28;20467;-74
2024/02/14 09:01:11;;;;;;;12.52;3.42;;;12.50;99.90;;;;;;5088882;28;20094;-73
2024/02/14 09:03:36;;;;;;;22.60;5.10;;;12.50;99.90;;;;;;5087458;28;20093;-73
2024/02/14 09:06:03;;;;;;;12.68;3.97;;;12.50;99.90;;;;;;5090905;28;20032;-73
2024/02/14 09:08:30;;;;;;;19.50;4.88;;;12.60;99.90;;;;;;5087700;28;20036;-74
2024/02/14 09:10:57;;;;;;;8.68;2.92;;;12.60;99.90;;;;;;5089077;28;20700;-74
2024/02/14 09:13:23;;;;;;;21.63;4.57;;;12.60;99.90;;;;;;5087565;28;21186;-75
2024/02/14 09:15:50;;;;;;;11.30;3.40;;;12.60;99.90;;;;;;5088224;28;20036;-74
2024/02/14 09:18:18;;;;;;;8.40;3.15;;;12.70;99.90;;;;;;5087675;28;20490;-74
2024/02/14 09:20:46;;;;;;;9.88;3.47;;;12.70;99.90;;;;;;5088517;28;20058;-74
2024/02/14 09:23:14;;;;;;;17.98;4.25;;;12.70;99.90;;;;;;5087318;28;20036;-74
2024/02/14 09:25:40;;;;;;;9.68;2.75;;;12.70;99.90;;;;;;5086092;28;20043;-75
2024/02/14 09:28:07;;;;;;;10.60;3.40;;;12.70;99.90;;;;;;5090256;28;20026;-74
2024/02/14 09:30:33;;;;;;;14.30;2.33;;;12.80;99.90;;;;;;5105053;27;20059;-74
2024/02/14 09:32:59;;;;;;;9.07;2.67;;;12.80;99.90;;;;;;5106091;28;20055;-74
2024/02/14 09:35:25;;;;;;;6.80;2.45;;;12.80;99.90;;;;;;5108904;28;20032;-74
2024/02/14 09:37:51;;;;;;;3.85;2.15;;;12.80;99.90;;;;;;5102421;28;20032;-74
2024/02/14 09:40:17;;;;;;;14.77;3.58;;;12.80;99.90;;;;;;5097749;28;20042;-74
2024/02/14 09:42:57;;;;;;;8.80;2.88;;;12.90;99.90;;;;;;5101969;28;20016;-74
2024/02/14 09:45:25;;;;;;;10.57;2.72;;;12.90;99.90;;;;;;5087900;28;20028;-74
2024/02/14 09:47:52;;;;;;;17.95;3.35;;;12.90;99.90;;;;;;5092837;28;20019;-74
2024/02/14 09:50:20;;;;;;;5.63;2.63;;;12.90;99.90;;;;;;5088339;28;20052;-74
2024/02/14 09:52:48;;;;;;;5.47;1.92;;;12.90;99.90;;;;;;5086275;28;20032;-74
2024/02/14 09:55:15;;;;;;;5.65;1.90;;;13.00;99.90;;;;;;5087449;28;20096;-74
2024/02/14 09:57:45;;;;;;;19.75;2.70;;;13.00;99.90;;;;;;5099759;28;20043;-74
2024/02/14 10:00:11;;;;;;;11.63;2.95;;;13.10;99.90;;;;;;5092582;28;20558;-74
2024/02/14 10:02:37;;;;;;;2.35;1.60;;;13.10;99.90;;;;;;5091505;28;20038;-74
2024/02/14 10:05:04;;;;;;;8.30;3.85;;;13.20;99.90;;;;;;5089499;28;20097;-74
2024/02/14 10:07:29;;;;;;;7.88;2.35;;;13.20;99.90;;;;;;5088234;28;20051;-74
2024/02/14 10:10:06;;;;;;;7.30;3.28;;;13.10;99.90;;;;;;5086208;28;20032;-73
2024/02/14 10:12:31;;;;;;;13.43;3.53;;;13.20;99.90;;;;;;5086255;28;20038;-76
2024/02/14 10:14:57;;;;;;;12.25;4.22;;;13.20;99.90;;;;;;5087552;28;20035;-78
2024/02/14 10:17:22;;;;;;;6.35;2.90;;;13.30;99.90;;;;;;5088553;28;20562;-77
2024/02/14 10:19:58;;;;;;;7.55;2.85;;;13.20;99.90;;;;;;5086698;28;20036;-77
2024/02/14 10:22:25;;;;;;;3.47;2.08;;;13.20;99.90;;;;;;5096080;28;20016;-79
2024/02/14 10:24:53;;;;;;;10.80;2.83;;;13.30;99.90;;;;;;5091990;28;20039;-78
2024/02/14 10:27:20;;;;;;;5.28;2.00;;;13.30;99.90;;;;;;5087690;28;20024;-79
2024/02/14 10:29:46;;;;;;;9.90;3.25;;;13.30;99.90;;;;;;5116054;27;20576;-78
2024/02/14 10:32:15;;;;;;;7.35;2.78;;;13.30;99.90;;;;;;5101303;28;20024;-76
2024/02/14 10:34:45;;;;;;;9.20;3.28;;;13.30;99.90;;;;;;5099689;28;20075;-76
2024/02/14 10:37:14;;;;;;;6.22;2.88;;;13.30;99.90;;;;;;5104989;28;20070;-76
2024/02/14 10:39:41;;;;;;;10.50;3.15;;;13.30;99.90;;;;;;5106181;28;20028;-75
2024/02/14 10:42:07;;;;;;;7.20;3.00;;;13.30;99.90;;;;;;5093361;28;20046;-78
2024/02/14 10:44:34;;;;;;;5.40;2.58;;;13.30;99.90;;;;;;5090946;28;20032;-73
2024/02/14 10:47:04;;;;;;;3.28;2.05;;;13.40;99.90;;;;;;5096172;28;20112;-77
2024/02/14 10:49:30;;;;;;;13.25;3.60;;;13.30;99.90;;;;;;5103257;28;20047;-75
2024/02/14 10:52:02;;;;;;;12.07;4.28;;;13.30;99.90;;;;;;5091851;28;20043;-75
2024/02/14 10:54:30;;;;;;;7.43;3.03;;;13.40;99.90;;;;;;5098076;28;20047;-75
2024/02/14 10:56:59;;;;;;;9.20;3.10;;;13.40;99.90;;;;;;5099417;28;20051;-76
2024/02/14 10:59:26;;;;;;;6.13;3.28;;;13.40;99.90;;;;;;5095624;28;20032;-76
2024/02/14 11:01:52;;;;;;;2.45;2.13;;;13.40;99.90;;;;;;5087429;28;20070;-75
2024/02/14 11:04:18;;;;;;;8.63;2.55;;;13.40;99.90;;;;;;5098740;28;20023;-75
2024/02/14 11:06:46;;;;;;;8.85;2.20;;;13.40;99.90;;;;;;5101901;28;20463;-75
2024/02/14 11:09:15;;;;;;;5.72;1.88;;;13.40;99.90;;;;;;5095174;28;20016;-75
2024/02/14 11:11:44;;;;;;;1.75;1.42;;;13.40;99.90;;;;;;5091504;28;20032;-76
2024/02/14 11:14:12;;;;;;;4.78;2.88;;;13.40;99.90;;;;;;5095606;28;20097;-75
2024/02/14 11:16:38;;;;;;;8.13;3.03;;;13.40;99.90;;;;;;5095888;28;20047;-76
2024/02/14 11:19:11;;;;;;;9.82;3.35;;;13.50;99.90;;;;;;5096532;28;20031;-75
2024/02/14 11:21:44;;;;;;;6.55;2.72;;;13.50;99.90;;;;;;5104090;28;20039;-75
2024/02/14 11:24:11;;;;;;;8.43;3.20;;;13.50;99.90;;;;;;5098909;28;20036;-76
2024/02/14 11:26:51;;;;;;;4.85;2.28;;;13.50;99.90;;;;;;5096895;27;20038;-75
2024/02/14 11:29:20;;;;;;;2.58;1.67;;;13.50;99.90;;;;;;5113939;27;20625;-77
2024/02/14 11:31:47;;;;;;;2.25;1.73;;;13.50;99.90;;;;;;5108338;27;20016;-75
2024/02/14 11:34:14;;;;;;;5.68;2.40;;;13.50;99.90;;;;;;5091348;28;20048;-77
2024/02/14 11:36:46;;;;;;;4.07;1.48;;;13.50;99.90;;;;;;5089039;28;20032;-77
2024/02/14 11:39:12;;;;;;;1.30;1.20;;;13.60;99.90;;;;;;5098636;28;20035;-77
2024/02/14 11:41:38;;;;;;;2.55;1.60;;;13.60;99.90;;;;;;5090905;28;20034;-77
2024/02/14 11:44:04;;;;;;;2.15;1.60;;;13.60;99.90;;;;;;5092607;28;20107;-77
2024/02/14 11:46:34;;;;;;;3.20;1.92;;;13.60;99.90;;;;;;5099428;28;20092;-77
2024/02/14 11:49:02;;;;;;;0.73;0.73;;;13.60;99.90;;;;;;5085324;28;20079;-77
2024/02/14 11:51:28;;;;;;;3.42;1.77;;;13.70;99.90;;;;;;5099486;28;20028;-77
2024/02/14 11:53:55;;;;;;;3.20;1.83;;;13.70;99.90;;;;;;5092778;28;20052;-77
2024/02/14 11:56:22;;;;;;;3.08;1.70;;;13.80;99.90;;;;;;5099779;28;20028;-77
2024/02/14 11:58:50;;;;;;;3.45;2.28;;;13.80;99.90;;;;;;5102568;28;20032;-78
2024/02/14 12:01:18;;;;;;;4.07;2.40;;;13.70;99.90;;;;;;5089633;28;20110;-76
2024/02/14 12:03:44;;;;;;;6.45;2.30;;;13.80;99.90;;;;;;5093951;27;20024;-76
2024/02/14 12:06:10;;;;;;;2.78;2.15;;;13.80;99.90;;;;;;5101430;27;20035;-77
2024/02/14 12:08:37;;;;;;;11.05;2.53;;;13.80;99.90;;;;;;5095700;28;20038;-76
2024/02/14 12:11:03;;;;;;;9.88;3.65;;;13.80;99.90;;;;;;5093250;28;20020;-77
2024/02/14 12:13:37;;;;;;;3.45;2.10;;;13.80;99.90;;;;;;5098217;28;20433;-76
2024/02/14 12:16:05;;;;;;;6.78;2.10;;;13.80;99.90;;;;;;5103450;28;20032;-77
2024/02/14 12:18:31;;;;;;;4.53;2.00;;;13.80;99.90;;;;;;5097217;28;20032;-77
2024/02/14 12:21:07;;;;;;;5.18;2.08;;;13.80;99.90;;;;;;5091864;28;20567;-78
2024/02/14 12:23:36;;;;;;;2.50;1.75;;;13.80;99.90;;;;;;5106868;28;20368;-77
2024/02/14 12:26:04;;;;;;;1.85;1.23;;;13.80;99.90;;;;;;5088428;28;20081;-78
2024/02/14 12:28:31;;;;;;;0.80;0.80;;;13.90;99.90;;;;;;5101086;27;20023;-77
2024/02/14 12:30:57;;;;;;;1.35;1.25;;;13.80;99.90;;;;;;5107314;27;20027;-77
2024/02/14 12:33:27;;;;;;;1.35;1.25;;;13.90;99.90;;;;;;5086975;28;20449;-78
2024/02/14 12:35:54;;;;;;;1.60;1.15;;;13.90;99.90;;;;;;5089297;28;20534;-75
2024/02/14 12:38:22;;;;;;;0.80;0.80;;;13.90;99.90;;;;;;5102617;28;20023;-78
2024/02/14 12:40:49;;;;;;;0.68;0.68;;;13.90;99.90;;;;;;5088096;28;20540;-78
2024/02/14 12:43:18;;;;;;;1.05;0.95;;;14.00;99.90;;;;;;5089479;28;20435;-77